createdAt,value
2023-05-19T00:01:05.938Z,5.30
2023-05-19T00:03:37.661Z,5.05
2023-05-19T00:06:10.686Z,5.43
2023-05-19T00:08:41.163Z,5.65
2023-05-19T00:11:12.133Z,5.93
2023-05-19T00:13:41.917Z,6.47
2023-05-19T00:16:14.017Z,5.72
2023-05-19T00:18:43.669Z,6.05
2023-05-19T00:21:14.838Z,5.43
2023-05-19T00:23:44.319Z,6.55
2023-05-19T00:26:14.315Z,6.68
2023-05-19T00:28:43.899Z,7.20
2023-05-19T00:31:13.500Z,7.18
2023-05-19T00:33:43.164Z,6.22
2023-05-19T00:36:14.384Z,6.22
2023-05-19T00:38:43.965Z,6.75
2023-05-19T00:41:13.531Z,7.32
2023-05-19T00:43:43.145Z,6.70
2023-05-19T00:49:34.673Z,7.03
2023-05-19T00:52:04.967Z,6.20
2023-05-19T00:54:36.110Z,7.25
2023-05-19T00:57:06.191Z,7.05
2023-05-19T00:59:35.884Z,6.95
2023-05-19T01:02:06.033Z,7.72
2023-05-19T01:04:42.071Z,6.80
2023-05-19T01:07:12.844Z,6.28
2023-05-19T01:09:42.326Z,6.72
2023-05-19T01:12:12.215Z,7.70
2023-05-19T01:14:41.742Z,6.90
2023-05-19T01:17:23.450Z,6.65
2023-05-19T01:20:06.962Z,6.47
2023-05-19T01:23:24.143Z,7.00
2023-05-19T01:26:45.064Z,6.55
2023-05-19T01:29:52.962Z,6.78
2023-05-19T01:32:26.334Z,6.65
2023-05-19T01:34:58.054Z,6.95
2023-05-19T01:37:29.408Z,6.75
2023-05-19T01:39:59.632Z,6.60
2023-05-19T01:42:29.843Z,6.57
2023-05-19T01:45:00.422Z,6.53
2023-05-19T01:47:31.574Z,6.78
2023-05-19T01:50:01.179Z,7.07
2023-05-19T01:52:30.945Z,7.93
2023-05-19T01:55:01.993Z,7.13
2023-05-19T01:57:40.251Z,7.43
2023-05-19T02:00:21.342Z,6.75
2023-05-19T02:03:05.557Z,7.22
2023-05-19T02:05:45.966Z,7.45
2023-05-19T02:08:25.929Z,6.78
2023-05-19T02:11:07.706Z,7.68
2023-05-19T02:13:43.039Z,7.00
2023-05-19T02:16:15.886Z,7.15
2023-05-19T02:18:48.741Z,9.52
2023-05-19T02:21:18.356Z,10.18
2023-05-19T02:23:48.339Z,8.95
2023-05-19T02:26:17.859Z,7.95
2023-05-19T02:28:47.521Z,7.53
2023-05-19T02:31:17.078Z,6.72
2023-05-19T02:33:48.178Z,7.00
2023-05-19T02:36:19.436Z,6.97
2023-05-19T02:38:49.191Z,6.32
2023-05-19T02:41:18.802Z,7.05
2023-05-19T02:43:48.255Z,6.53
2023-05-19T02:46:17.791Z,8.25
2023-05-19T02:48:48.826Z,8.32
2023-05-19T02:51:21.150Z,7.25
2023-05-19T02:53:50.716Z,7.28
2023-05-19T02:56:20.184Z,7.25
2023-05-19T02:58:49.990Z,7.72
2023-05-19T03:01:21.597Z,7.10
2023-05-19T03:03:53.003Z,6.85
2023-05-19T03:06:23.847Z,7.00
2023-05-19T03:08:53.499Z,7.15
2023-05-19T03:11:23.523Z,10.00
2023-05-19T03:13:53.247Z,8.77
2023-05-19T03:16:22.814Z,15.60
2023-05-19T03:18:54.121Z,12.23
2023-05-19T03:21:23.670Z,11.88
2023-05-19T03:23:53.390Z,9.70
2023-05-19T03:26:23.262Z,8.82
2023-05-19T03:28:53.106Z,8.70
2023-05-19T03:31:22.751Z,8.20
2023-05-19T03:33:53.842Z,8.13
2023-05-19T03:36:23.416Z,8.10
2023-05-19T03:38:54.427Z,6.82
2023-05-19T03:41:23.870Z,7.35
2023-05-19T03:43:53.594Z,7.30
2023-05-19T03:46:23.163Z,7.45
2023-05-19T03:50:34.723Z,7.63
2023-05-19T03:53:04.515Z,8.32
2023-05-19T03:55:34.138Z,7.80
2023-05-19T03:58:03.721Z,7.55
2023-05-19T04:00:33.753Z,7.68
2023-05-19T04:03:03.626Z,7.95
2023-05-19T04:05:34.745Z,7.85
2023-05-19T04:08:04.307Z,7.82
2023-05-19T04:10:34.075Z,8.23
2023-05-19T04:13:03.762Z,8.50
2023-05-19T04:15:33.416Z,7.57
2023-05-19T04:18:02.859Z,7.82
2023-05-19T04:20:33.971Z,7.65
2023-05-19T04:23:03.673Z,8.07
2023-05-19T04:25:33.903Z,7.65
2023-05-19T04:28:03.517Z,7.80
2023-05-19T04:30:33.851Z,7.50
2023-05-19T04:33:05.108Z,7.65
2023-05-19T04:35:38.378Z,7.28
2023-05-19T04:38:07.961Z,7.57
2023-05-19T04:40:37.374Z,7.75
2023-05-19T04:43:07.600Z,7.75
2023-05-19T04:45:37.958Z,7.10
2023-05-19T04:48:08.335Z,7.43
2023-05-19T04:50:42.282Z,6.18
2023-05-19T04:53:12.062Z,8.20
2023-05-19T04:55:41.602Z,6.78
2023-05-19T04:58:11.142Z,7.88
2023-05-19T05:00:40.526Z,7.38
2023-05-19T05:03:10.179Z,7.40
2023-05-19T05:05:41.193Z,6.78
2023-05-19T05:08:12.422Z,6.97
2023-05-19T05:10:41.884Z,7.70
2023-05-19T05:13:12.487Z,7.78
2023-05-19T05:15:42.697Z,6.72
2023-05-19T05:18:13.593Z,7.00
2023-05-19T05:20:46.580Z,6.88
2023-05-19T05:23:17.086Z,6.50
2023-05-19T05:25:48.253Z,6.80
2023-05-19T05:28:18.140Z,6.22
2023-05-19T05:30:49.297Z,6.90
2023-05-19T05:33:22.546Z,6.60
2023-05-19T05:35:53.578Z,6.15
2023-05-19T05:38:23.195Z,6.20
2023-05-19T05:40:52.842Z,5.97
2023-05-19T05:43:22.344Z,6.68
2023-05-19T05:45:51.776Z,6.32
2023-05-19T05:48:22.360Z,5.90
2023-05-19T05:50:54.891Z,4.85
2023-05-19T05:53:28.062Z,6.28
2023-05-19T05:55:58.330Z,6.63
2023-05-19T05:58:28.963Z,5.20
2023-05-19T06:00:59.921Z,7.63
2023-05-19T06:03:29.551Z,6.30
2023-05-19T06:06:00.607Z,6.00
2023-05-19T06:08:30.271Z,7.60
2023-05-19T06:10:59.770Z,7.03
2023-05-19T06:13:29.278Z,6.40
2023-05-19T06:16:00.562Z,6.85
2023-05-19T06:18:31.461Z,6.65
2023-05-19T06:21:03.529Z,6.53
2023-05-19T06:23:33.244Z,6.93
2023-05-19T06:26:02.523Z,7.55
2023-05-19T06:28:33.341Z,7.10
2023-05-19T06:31:02.806Z,7.15
2023-05-19T06:33:32.867Z,7.40
2023-05-19T06:36:03.849Z,7.82
2023-05-19T06:38:33.376Z,7.85
2023-05-19T06:41:02.753Z,7.30
2023-05-19T06:43:32.279Z,7.25
2023-05-19T06:46:01.857Z,8.82
2023-05-19T06:50:34.741Z,8.88
2023-05-19T06:53:04.623Z,7.97
2023-05-19T06:55:37.088Z,6.95
2023-05-19T06:58:10.888Z,6.95
2023-05-19T07:00:40.501Z,6.93
2023-05-19T07:03:10.082Z,8.80
2023-05-19T07:05:41.056Z,8.30
2023-05-19T07:08:10.399Z,7.43
2023-05-19T07:10:39.941Z,8.80
2023-05-19T07:13:09.397Z,7.60
2023-05-19T07:15:38.909Z,9.70
2023-05-19T07:18:08.446Z,8.13
2023-05-19T07:20:39.425Z,7.65
2023-05-19T07:23:08.931Z,8.32
2023-05-19T07:25:39.632Z,7.93
2023-05-19T07:28:08.984Z,8.05
2023-05-19T07:30:39.243Z,7.68
2023-05-19T07:33:08.919Z,10.05
2023-05-19T07:35:40.408Z,8.48
2023-05-19T07:38:09.765Z,8.37
2023-05-19T07:40:39.432Z,8.25
2023-05-19T07:43:08.929Z,8.10
2023-05-19T07:45:38.497Z,7.60
2023-05-19T07:48:08.153Z,8.27
2023-05-19T07:50:37.733Z,8.10
2023-05-19T07:53:08.472Z,8.90
2023-05-19T07:55:37.882Z,8.55
2023-05-19T07:58:07.220Z,7.18
2023-05-19T08:00:37.131Z,8.15
2023-05-19T08:03:08.168Z,8.70
2023-05-19T08:05:37.984Z,8.35
2023-05-19T08:08:09.038Z,8.93
2023-05-19T08:10:38.597Z,7.97
2023-05-19T08:13:07.946Z,8.95
2023-05-19T08:15:37.394Z,8.63
2023-05-19T08:18:06.899Z,7.93
2023-05-19T08:20:37.017Z,7.65
2023-05-19T08:23:07.902Z,8.10
2023-05-19T08:25:37.434Z,8.23
2023-05-19T08:28:07.104Z,8.32
2023-05-19T08:30:36.551Z,7.28
2023-05-19T08:33:06.640Z,7.50
2023-05-19T08:35:36.032Z,8.48
2023-05-19T08:38:05.584Z,7.95
2023-05-19T08:40:40.034Z,7.68
2023-05-19T08:43:10.171Z,7.60
2023-05-19T08:45:41.777Z,7.82
2023-05-19T08:48:11.430Z,7.80
2023-05-19T08:50:43.891Z,7.35
2023-05-19T08:53:33.101Z,6.53
2023-05-19T08:56:12.285Z,7.05
2023-05-19T08:58:44.265Z,7.55
2023-05-19T09:01:17.451Z,7.55
2023-05-19T09:03:50.249Z,7.47
2023-05-19T09:06:20.121Z,7.57
2023-05-19T09:08:49.778Z,6.75
2023-05-19T09:11:22.809Z,6.85
2023-05-19T09:13:52.359Z,7.28
2023-05-19T09:16:22.295Z,6.78
2023-05-19T09:19:01.512Z,7.10
2023-05-19T09:21:32.511Z,7.57
2023-05-19T09:24:08.138Z,6.28
2023-05-19T09:26:44.228Z,6.53
2023-05-19T09:29:14.828Z,7.32
2023-05-19T09:31:51.936Z,6.78
2023-05-19T09:34:25.131Z,6.80
2023-05-19T09:36:55.391Z,6.88
2023-05-19T09:39:26.490Z,7.13
2023-05-19T09:41:59.270Z,6.72
2023-05-19T09:44:30.751Z,6.28
2023-05-19T09:50:35.914Z,6.88
2023-05-19T09:53:06.708Z,6.63
2023-05-19T09:55:37.379Z,8.30
2023-05-19T09:58:06.899Z,6.07
2023-05-19T10:00:36.481Z,5.95
2023-05-19T10:03:07.421Z,5.72
2023-05-19T10:05:38.738Z,6.10
2023-05-19T10:08:10.650Z,5.55
2023-05-19T10:10:41.118Z,5.88
2023-05-19T10:13:10.768Z,6.20
2023-05-19T10:15:50.018Z,5.63
2023-05-19T10:18:30.038Z,5.38
2023-05-19T10:21:02.960Z,5.70
2023-05-19T10:23:32.524Z,5.47
2023-05-19T10:26:05.321Z,5.60
2023-05-19T10:28:41.222Z,6.05
2023-05-19T10:31:15.114Z,5.60
2023-05-19T10:34:03.724Z,5.72
2023-05-19T10:36:47.924Z,6.85
2023-05-19T10:39:23.366Z,6.18
2023-05-19T10:42:06.229Z,5.38
2023-05-19T10:44:52.811Z,5.68
2023-05-19T10:47:26.406Z,4.68
2023-05-19T10:49:56.499Z,4.82
2023-05-19T10:52:27.308Z,4.75
2023-05-19T10:54:58.622Z,4.88
2023-05-19T10:57:32.069Z,3.83
2023-05-19T11:00:02.165Z,4.25
2023-05-19T11:02:42.854Z,4.90
2023-05-19T11:05:14.987Z,4.60
2023-05-19T11:08:02.530Z,4.68
2023-05-19T11:10:32.258Z,4.35
2023-05-19T11:13:01.811Z,4.40
2023-05-19T11:15:31.657Z,4.28
2023-05-19T11:18:04.146Z,4.10
2023-05-19T11:20:35.519Z,4.30
2023-05-19T11:23:11.001Z,4.53
2023-05-19T11:25:48.960Z,4.05
2023-05-19T11:28:20.458Z,4.25
2023-05-19T11:30:52.368Z,4.57
2023-05-19T11:35:59.291Z,4.78
2023-05-19T11:38:31.418Z,4.53
2023-05-19T11:41:01.018Z,4.43
2023-05-19T11:43:30.619Z,4.88
2023-05-19T11:46:00.295Z,4.53
2023-05-19T11:48:31.511Z,4.22
2023-05-19T11:51:02.690Z,4.07
2023-05-19T11:53:36.395Z,4.53
2023-05-19T11:56:06.831Z,4.45
2023-05-19T11:58:36.353Z,4.47
2023-05-19T12:01:07.081Z,4.60
2023-05-19T12:03:36.667Z,5.38
2023-05-19T12:06:08.680Z,4.50
2023-05-19T12:08:39.961Z,5.38
2023-05-19T12:11:09.477Z,4.47
2023-05-19T12:13:39.023Z,4.05
2023-05-19T12:16:10.135Z,5.53
2023-05-19T12:18:40.562Z,4.72
2023-05-19T12:21:10.091Z,4.07
2023-05-19T12:23:41.773Z,4.47
2023-05-19T12:26:12.427Z,4.85
2023-05-19T12:28:41.692Z,3.97
2023-05-19T12:31:11.071Z,4.38
2023-05-19T12:33:40.763Z,4.43
2023-05-19T12:36:13.553Z,4.00
2023-05-19T12:38:45.709Z,4.28
2023-05-19T12:43:44.541Z,4.13
2023-05-19T12:46:16.596Z,4.35
2023-05-19T12:50:34.720Z,4.40
2023-05-19T12:53:04.802Z,4.40
2023-05-19T12:55:42.432Z,4.43
2023-05-19T12:58:12.885Z,4.10
2023-05-19T13:00:47.691Z,3.55
2023-05-19T13:03:19.196Z,3.42
2023-05-19T13:05:52.107Z,4.43
2023-05-19T13:08:24.263Z,3.55
2023-05-19T13:13:23.063Z,3.38
2023-05-19T13:15:52.642Z,4.60
2023-05-19T13:18:22.741Z,4.03
2023-05-19T13:20:54.684Z,4.00
2023-05-19T13:23:24.127Z,3.90
2023-05-19T13:25:53.602Z,4.00
2023-05-19T13:28:23.719Z,3.80
2023-05-19T13:30:53.264Z,3.03
2023-05-19T13:33:22.780Z,3.70
2023-05-19T13:35:53.666Z,3.58
2023-05-19T13:38:23.071Z,4.20
2023-05-19T13:40:52.510Z,4.05
2023-05-19T13:43:22.078Z,3.95
2023-05-19T13:45:51.976Z,3.85
2023-05-19T13:48:21.655Z,4.05
2023-05-19T13:50:54.656Z,4.22
2023-05-19T13:53:24.238Z,3.70
2023-05-19T13:55:55.391Z,3.58
2023-05-19T13:58:24.804Z,3.65
2023-05-19T14:00:56.646Z,4.07
2023-05-19T14:03:26.496Z,3.95
2023-05-19T14:05:57.509Z,3.92
2023-05-19T14:08:27.132Z,3.90
2023-05-19T14:10:57.561Z,3.92
2023-05-19T14:13:33.059Z,3.88
2023-05-19T14:16:06.319Z,4.40
2023-05-19T14:18:35.886Z,3.85
2023-05-19T14:21:07.439Z,4.63
2023-05-19T14:23:36.881Z,3.92
2023-05-19T14:26:06.472Z,3.95
2023-05-19T14:28:35.856Z,2.83
2023-05-19T14:31:06.241Z,2.67
2023-05-19T14:33:35.886Z,2.05
2023-05-19T14:36:08.075Z,1.50
2023-05-19T14:38:37.574Z,1.33
2023-05-19T14:41:07.619Z,1.02
2023-05-19T14:43:37.173Z,1.50
2023-05-19T14:46:07.188Z,1.55
2023-05-19T14:48:36.575Z,1.45
2023-05-19T14:51:07.558Z,1.33
2023-05-19T14:53:37.034Z,1.83
2023-05-19T14:56:07.904Z,1.63
2023-05-19T14:58:37.509Z,1.63
2023-05-19T15:01:07.262Z,1.95
2023-05-19T15:03:36.810Z,1.35
2023-05-19T15:06:11.709Z,1.65
2023-05-19T15:08:41.980Z,1.90
2023-05-19T15:11:11.440Z,1.05
2023-05-19T15:13:40.993Z,1.50
2023-05-19T15:16:17.602Z,1.45
2023-05-19T15:18:47.943Z,2.05
2023-05-19T15:21:18.898Z,2.25
2023-05-19T15:23:48.281Z,1.73
2023-05-19T15:26:17.746Z,2.45
2023-05-19T15:28:47.172Z,2.35
2023-05-19T15:31:16.681Z,2.28
2023-05-19T15:33:46.299Z,2.20
2023-05-19T15:36:16.851Z,2.80
2023-05-19T15:38:47.651Z,2.58
2023-05-19T15:41:17.107Z,2.00
2023-05-19T15:43:47.384Z,2.60
2023-05-19T15:46:19.322Z,2.38
2023-05-19T15:50:34.489Z,1.85
2023-05-19T15:53:04.161Z,2.00
2023-05-19T15:55:33.831Z,1.70
2023-05-19T15:58:03.143Z,1.95
2023-05-19T16:00:32.693Z,1.63
2023-05-19T16:03:04.917Z,1.58
2023-05-19T16:05:36.053Z,1.00
2023-05-19T16:08:07.711Z,0.68
2023-05-19T16:10:38.366Z,0.80
2023-05-19T16:13:07.750Z,0.85
2023-05-19T16:15:37.263Z,0.80
2023-05-19T16:18:06.788Z,1.17
2023-05-19T16:20:37.628Z,1.80
2023-05-19T16:23:07.137Z,2.05
2023-05-19T16:25:36.633Z,2.67
2023-05-19T16:28:06.607Z,2.38
2023-05-19T16:30:36.262Z,2.05
2023-05-19T16:33:06.134Z,1.80
2023-05-19T16:35:37.329Z,2.25
2023-05-19T16:38:06.799Z,2.17
2023-05-19T16:40:36.726Z,2.17
2023-05-19T16:43:06.312Z,1.95
2023-05-19T16:45:35.905Z,2.42
2023-05-19T16:48:05.693Z,2.50
2023-05-19T16:50:36.908Z,2.35
2023-05-19T16:53:06.627Z,2.67
2023-05-19T16:55:36.055Z,3.25
2023-05-19T16:58:05.470Z,5.85
2023-05-19T17:00:35.722Z,3.72
2023-05-19T17:03:06.336Z,6.57
2023-05-19T17:05:39.222Z,6.88
2023-05-19T17:08:08.680Z,7.35
2023-05-19T17:10:39.484Z,6.97
2023-05-19T17:13:08.998Z,8.13
2023-05-19T17:15:39.999Z,9.52
2023-05-19T17:18:12.684Z,11.25
2023-05-19T17:20:43.606Z,15.65
2023-05-19T17:23:13.057Z,16.00
2023-05-19T17:25:42.655Z,10.85
2023-05-19T17:28:12.230Z,7.95
2023-05-19T17:30:42.681Z,8.75
2023-05-19T17:33:13.585Z,8.02
2023-05-19T17:35:44.476Z,11.90
2023-05-19T17:38:14.016Z,14.25
2023-05-19T17:40:43.536Z,19.55
2023-05-19T17:43:13.023Z,10.13
2023-05-19T17:45:42.601Z,9.05
2023-05-19T17:48:11.995Z,8.50
2023-05-19T17:50:42.846Z,8.95
2023-05-19T17:53:12.970Z,10.77
2023-05-19T17:55:43.854Z,12.55
2023-05-19T17:58:13.829Z,12.60
2023-05-19T18:00:44.024Z,11.45
2023-05-19T18:03:14.582Z,13.77
2023-05-19T18:05:46.090Z,12.32
2023-05-19T18:08:16.828Z,11.50
2023-05-19T18:10:48.834Z,10.10
2023-05-19T18:13:18.265Z,12.75
2023-05-19T18:15:47.653Z,11.15
2023-05-19T18:18:17.102Z,9.55
2023-05-19T18:20:48.461Z,9.13
2023-05-19T18:23:18.358Z,11.80
2023-05-19T18:25:53.523Z,12.45
2023-05-19T18:28:22.926Z,10.90
2023-05-19T18:31:01.417Z,7.65
2023-05-19T18:33:31.472Z,8.85
2023-05-19T18:36:02.497Z,8.00
2023-05-19T18:38:31.938Z,9.20
2023-05-19T18:41:01.943Z,7.82
2023-05-19T18:43:32.702Z,9.32
2023-05-19T18:46:02.190Z,7.50
2023-05-19T18:50:34.045Z,8.38
2023-05-19T18:53:04.640Z,8.57
2023-05-19T18:55:34.227Z,12.82
2023-05-19T18:58:04.474Z,14.98
2023-05-19T19:00:34.323Z,20.50
2023-05-19T19:03:04.082Z,16.20
2023-05-19T19:05:35.101Z,14.93
2023-05-19T19:08:05.897Z,11.88
2023-05-19T19:10:39.266Z,12.80
2023-05-19T19:13:08.740Z,13.48
2023-05-19T19:15:39.954Z,11.02
2023-05-19T19:18:09.397Z,11.05
2023-05-19T19:20:40.445Z,11.38
2023-05-19T19:23:09.845Z,8.68
2023-05-19T19:25:39.297Z,9.25
2023-05-19T19:28:08.828Z,8.15
2023-05-19T19:30:38.397Z,5.05
2023-05-19T19:33:07.878Z,6.68
2023-05-19T19:35:38.795Z,6.18
2023-05-19T19:38:08.224Z,5.45
2023-05-19T19:40:37.645Z,6.63
2023-05-19T19:43:07.086Z,5.03
2023-05-19T19:45:39.287Z,4.43
2023-05-19T19:48:09.305Z,3.95
2023-05-19T19:50:40.319Z,3.90
2023-05-19T19:53:09.772Z,4.32
2023-05-19T19:55:39.187Z,4.03
2023-05-19T19:58:08.577Z,3.65
2023-05-19T20:00:38.057Z,4.28
2023-05-19T20:03:07.984Z,4.07
2023-05-19T20:05:41.177Z,3.85
2023-05-19T20:08:10.636Z,3.83
2023-05-19T20:10:40.140Z,4.93
2023-05-19T20:13:09.847Z,4.38
2023-05-19T20:15:39.322Z,3.90
2023-05-19T20:18:08.875Z,3.67
2023-05-19T20:20:39.860Z,3.88
2023-05-19T20:23:09.961Z,3.35
2023-05-19T20:25:58.452Z,3.28
2023-05-19T20:31:01.546Z,3.78
2023-05-19T20:33:31.958Z,3.45
2023-05-19T20:36:02.726Z,3.55
2023-05-19T20:38:32.261Z,3.45
2023-05-19T20:41:04.051Z,3.15
2023-05-19T20:43:34.409Z,2.97
2023-05-19T20:46:04.064Z,4.18
2023-05-19T20:48:33.664Z,3.22
2023-05-19T20:51:05.680Z,3.65
2023-05-19T20:53:35.161Z,3.28
2023-05-19T20:56:06.998Z,3.47
2023-05-19T20:58:36.311Z,3.42
2023-05-19T21:01:06.164Z,3.13
2023-05-19T21:03:35.729Z,3.60
2023-05-19T21:06:06.992Z,3.58
2023-05-19T21:08:36.437Z,3.58
2023-05-19T21:11:06.618Z,3.65
2023-05-19T21:13:39.350Z,3.30
2023-05-19T21:16:09.208Z,3.47
2023-05-19T21:18:38.654Z,3.50
2023-05-19T21:21:09.514Z,3.03
2023-05-19T21:23:39.138Z,3.20
2023-05-19T21:26:08.633Z,3.20
2023-05-19T21:28:38.103Z,3.72
2023-05-19T21:31:07.734Z,3.55
2023-05-19T21:33:37.256Z,3.15
2023-05-19T21:36:08.917Z,3.33
2023-05-19T21:38:38.369Z,3.07
2023-05-19T21:41:08.002Z,3.42
2023-05-19T21:43:37.419Z,3.55
2023-05-19T21:46:07.796Z,3.92
2023-05-19T21:50:37.127Z,2.83
2023-05-19T21:53:06.643Z,4.15
2023-05-19T21:55:36.323Z,3.50
2023-05-19T21:58:05.711Z,3.60
2023-05-19T22:00:37.016Z,3.80
2023-05-19T22:03:06.830Z,3.65
2023-05-19T22:05:38.481Z,3.55
2023-05-19T22:08:08.216Z,3.80
2023-05-19T22:10:38.883Z,3.88
2023-05-19T22:13:08.826Z,3.67
2023-05-19T22:15:38.470Z,3.72
2023-05-19T22:18:08.353Z,4.05
2023-05-19T22:20:39.451Z,3.70
2023-05-19T22:23:09.080Z,3.53
2023-05-19T22:25:38.570Z,3.60
2023-05-19T22:28:09.273Z,3.75
2023-05-19T22:30:41.091Z,3.65
2023-05-19T22:33:11.437Z,4.43
2023-05-19T22:35:43.017Z,3.97
2023-05-19T22:38:13.157Z,4.47
2023-05-19T22:40:42.593Z,5.07
2023-05-19T22:43:12.047Z,3.83
2023-05-19T22:45:41.858Z,5.25
2023-05-19T22:48:11.775Z,5.53
2023-05-19T22:50:42.804Z,5.95
2023-05-19T22:53:12.148Z,4.53
2023-05-19T22:55:41.912Z,4.88
2023-05-19T22:58:11.476Z,5.63
2023-05-19T23:00:40.818Z,5.00
2023-05-19T23:03:13.237Z,4.97
2023-05-19T23:08:13.598Z,4.50
2023-05-19T23:10:44.293Z,4.00
2023-05-19T23:13:13.751Z,4.00
2023-05-19T23:15:43.139Z,4.30
2023-05-19T23:18:12.567Z,4.00
2023-05-19T23:20:43.814Z,4.22
2023-05-19T23:23:13.366Z,3.85
2023-05-19T23:25:42.614Z,3.72
2023-05-19T23:28:13.454Z,3.83
2023-05-19T23:30:42.746Z,4.13
2023-05-19T23:33:12.361Z,3.75
2023-05-19T23:35:43.768Z,3.28
2023-05-19T23:38:13.215Z,3.53
2023-05-19T23:40:42.725Z,3.72
2023-05-19T23:43:12.145Z,3.85
2023-05-19T23:45:41.631Z,3.63
2023-05-19T23:48:11.310Z,3.58
2023-05-19T23:50:40.941Z,3.17
2023-05-19T23:53:11.802Z,3.25
2023-05-19T23:55:41.286Z,2.85
2023-05-19T23:58:10.648Z,3.92
